sensor_id;sensor_type;location;lat;lon;timestamp;P1;durP1;ratioP1;P2;durP2;ratioP2
65459;SDS011;52058;49.822;6.754;2023-09-30T00:01:35;9.07;;;4.10;;
65459;SDS011;52058;49.822;6.754;2023-09-30T00:04:02;5.45;;;3.80;;
65459;SDS011;52058;49.822;6.754;2023-09-30T00:06:30;5.63;;;4.40;;
65459;SDS011;52058;49.822;6.754;2023-09-30T00:08:56;7.25;;;3.72;;
65459;SDS011;52058;49.822;6.754;2023-09-30T00:11:24;7.85;;;4.10;;
65459;SDS011;52058;49.822;6.754;2023-09-30T00:13:51;9.57;;;4.10;;
65459;SDS011;52058;49.822;6.754;2023-09-30T00:16:18;10.57;;;4.25;;
65459;SDS011;52058;49.822;6.754;2023-09-30T00:18:44;6.57;;;3.92;;
65459;SDS011;52058;49.822;6.754;2023-09-30T00:21:11;9.88;;;4.38;;
65459;SDS011;52058;49.822;6.754;2023-09-30T00:23:37;7.30;;;4.13;;
65459;SDS011;52058;49.822;6.754;2023-09-30T00:26:04;10.10;;;4.53;;
65459;SDS011;52058;49.822;6.754;2023-09-30T00:28:32;8.48;;;3.88;;
65459;SDS011;52058;49.822;6.754;2023-09-30T00:30:58;7.85;;;3.85;;
65459;SDS011;52058;49.822;6.754;2023-09-30T00:33:25;8.23;;;4.55;;
65459;SDS011;52058;49.822;6.754;2023-09-30T00:35:51;12.10;;;4.45;;
65459;SDS011;52058;49.822;6.754;2023-09-30T00:38:18;8.23;;;4.13;;
65459;SDS011;52058;49.822;6.754;2023-09-30T00:40:48;10.15;;;5.18;;
65459;SDS011;52058;49.822;6.754;2023-09-30T00:43:19;5.93;;;3.90;;
65459;SDS011;52058;49.822;6.754;2023-09-30T00:45:47;8.15;;;4.03;;
65459;SDS011;52058;49.822;6.754;2023-09-30T00:48:14;8.40;;;4.32;;
65459;SDS011;52058;49.822;6.754;2023-09-30T00:50:42;6.95;;;4.30;;
65459;SDS011;52058;49.822;6.754;2023-09-30T00:53:09;8.45;;;4.30;;
65459;SDS011;52058;49.822;6.754;2023-09-30T00:55:36;6.68;;;4.30;;
65459;SDS011;52058;49.822;6.754;2023-09-30T00:58:03;6.50;;;4.35;;
65459;SDS011;52058;49.822;6.754;2023-09-30T01:00:30;6.60;;;3.67;;
65459;SDS011;52058;49.822;6.754;2023-09-30T01:02:58;7.75;;;4.22;;
65459;SDS011;52058;49.822;6.754;2023-09-30T01:05:28;9.57;;;4.10;;
65459;SDS011;52058;49.822;6.754;2023-09-30T01:07:55;8.75;;;3.97;;
65459;SDS011;52058;49.822;6.754;2023-09-30T01:10:22;10.73;;;4.18;;
65459;SDS011;52058;49.822;6.754;2023-09-30T01:12:48;6.68;;;3.90;;
65459;SDS011;52058;49.822;6.754;2023-09-30T01:15:15;11.93;;;4.40;;
65459;SDS011;52058;49.822;6.754;2023-09-30T01:17:41;6.13;;;3.75;;
65459;SDS011;52058;49.822;6.754;2023-09-30T01:20:10;5.07;;;3.78;;
65459;SDS011;52058;49.822;6.754;2023-09-30T01:22:48;6.03;;;3.63;;
65459;SDS011;52058;49.822;6.754;2023-09-30T01:25:15;5.35;;;3.55;;
65459;SDS011;52058;49.822;6.754;2023-09-30T01:27:42;6.95;;;3.72;;
65459;SDS011;52058;49.822;6.754;2023-09-30T01:30:09;6.65;;;3.88;;
65459;SDS011;52058;49.822;6.754;2023-09-30T01:32:36;6.40;;;3.88;;
65459;SDS011;52058;49.822;6.754;2023-09-30T01:35:03;6.32;;;3.70;;
65459;SDS011;52058;49.822;6.754;2023-09-30T01:37:30;6.70;;;3.92;;
65459;SDS011;52058;49.822;6.754;2023-09-30T01:39:58;6.38;;;3.78;;
65459;SDS011;52058;49.822;6.754;2023-09-30T01:42:24;9.05;;;4.07;;
65459;SDS011;52058;49.822;6.754;2023-09-30T01:44:51;8.30;;;4.43;;
65459;SDS011;52058;49.822;6.754;2023-09-30T01:47:18;10.48;;;4.00;;
65459;SDS011;52058;49.822;6.754;2023-09-30T01:49:44;6.90;;;3.83;;
65459;SDS011;52058;49.822;6.754;2023-09-30T01:52:11;9.40;;;4.30;;
65459;SDS011;52058;49.822;6.754;2023-09-30T01:54:37;7.82;;;4.20;;
65459;SDS011;52058;49.822;6.754;2023-09-30T01:57:05;7.75;;;4.35;;
65459;SDS011;52058;49.822;6.754;2023-09-30T01:59:32;9.10;;;4.47;;
65459;SDS011;52058;49.822;6.754;2023-09-30T02:01:59;9.95;;;4.30;;
65459;SDS011;52058;49.822;6.754;2023-09-30T02:04:27;8.10;;;4.18;;
65459;SDS011;52058;49.822;6.754;2023-09-30T02:06:54;8.63;;;4.47;;
65459;SDS011;52058;49.822;6.754;2023-09-30T02:09:21;7.75;;;4.40;;
65459;SDS011;52058;49.822;6.754;2023-09-30T02:11:47;8.45;;;4.22;;
65459;SDS011;52058;49.822;6.754;2023-09-30T02:14:15;7.90;;;4.10;;
65459;SDS011;52058;49.822;6.754;2023-09-30T02:16:42;8.00;;;4.13;;
65459;SDS011;52058;49.822;6.754;2023-09-30T02:19:08;5.53;;;3.67;;
65459;SDS011;52058;49.822;6.754;2023-09-30T02:21:35;5.43;;;3.95;;
65459;SDS011;52058;49.822;6.754;2023-09-30T02:24:02;5.68;;;3.60;;
65459;SDS011;52058;49.822;6.754;2023-09-30T02:26:31;5.70;;;3.47;;
65459;SDS011;52058;49.822;6.754;2023-09-30T02:28:58;5.68;;;3.60;;
65459;SDS011;52058;49.822;6.754;2023-09-30T02:31:26;12.45;;;3.63;;
65459;SDS011;52058;49.822;6.754;2023-09-30T02:33:52;8.18;;;4.20;;
65459;SDS011;52058;49.822;6.754;2023-09-30T02:36:19;8.43;;;4.75;;
65459;SDS011;52058;49.822;6.754;2023-09-30T02:38:45;7.20;;;4.25;;
65459;SDS011;52058;49.822;6.754;2023-09-30T02:41:12;9.00;;;4.15;;
65459;SDS011;52058;49.822;6.754;2023-09-30T02:43:38;8.75;;;4.50;;
65459;SDS011;52058;49.822;6.754;2023-09-30T02:46:05;10.05;;;5.10;;
65459;SDS011;52058;49.822;6.754;2023-09-30T02:48:34;12.88;;;5.60;;
65459;SDS011;52058;49.822;6.754;2023-09-30T02:51:01;8.73;;;4.63;;
65459;SDS011;52058;49.822;6.754;2023-09-30T02:53:28;8.35;;;3.83;;
65459;SDS011;52058;49.822;6.754;2023-09-30T02:55:54;11.63;;;4.15;;
65459;SDS011;52058;49.822;6.754;2023-09-30T02:58:24;13.77;;;5.15;;
65459;SDS011;52058;49.822;6.754;2023-09-30T03:00:51;12.43;;;5.32;;
65459;SDS011;52058;49.822;6.754;2023-09-30T03:03:18;12.70;;;5.38;;
65459;SDS011;52058;49.822;6.754;2023-09-30T03:05:46;17.00;;;5.75;;
65459;SDS011;52058;49.822;6.754;2023-09-30T03:08:15;19.92;;;6.13;;
65459;SDS011;52058;49.822;6.754;2023-09-30T03:10:41;18.42;;;6.20;;
65459;SDS011;52058;49.822;6.754;2023-09-30T03:13:08;16.35;;;5.95;;
65459;SDS011;52058;49.822;6.754;2023-09-30T03:15:35;18.17;;;6.75;;
65459;SDS011;52058;49.822;6.754;2023-09-30T03:18:02;28.05;;;7.07;;
65459;SDS011;52058;49.822;6.754;2023-09-30T03:20:29;16.92;;;6.50;;
65459;SDS011;52058;49.822;6.754;2023-09-30T03:22:57;17.40;;;6.60;;
65459;SDS011;52058;49.822;6.754;2023-09-30T03:25:24;15.25;;;7.03;;
65459;SDS011;52058;49.822;6.754;2023-09-30T03:27:52;18.58;;;8.15;;
65459;SDS011;52058;49.822;6.754;2023-09-30T03:30:18;14.88;;;6.97;;
65459;SDS011;52058;49.822;6.754;2023-09-30T03:32:46;16.60;;;7.55;;
65459;SDS011;52058;49.822;6.754;2023-09-30T03:35:12;19.10;;;7.88;;
65459;SDS011;52058;49.822;6.754;2023-09-30T03:37:40;19.77;;;6.90;;
65459;SDS011;52058;49.822;6.754;2023-09-30T03:40:08;18.98;;;7.03;;
65459;SDS011;52058;49.822;6.754;2023-09-30T03:42:39;21.70;;;7.32;;
65459;SDS011;52058;49.822;6.754;2023-09-30T03:45:07;26.95;;;7.30;;
65459;SDS011;52058;49.822;6.754;2023-09-30T03:47:35;28.50;;;7.18;;
65459;SDS011;52058;49.822;6.754;2023-09-30T03:50:01;16.52;;;7.35;;
65459;SDS011;52058;49.822;6.754;2023-09-30T03:52:29;15.35;;;7.07;;
65459;SDS011;52058;49.822;6.754;2023-09-30T03:54:58;22.00;;;6.60;;
65459;SDS011;52058;49.822;6.754;2023-09-30T03:57:26;19.83;;;7.30;;
65459;SDS011;52058;49.822;6.754;2023-09-30T03:59:53;20.73;;;6.78;;
65459;SDS011;52058;49.822;6.754;2023-09-30T04:02:19;18.92;;;7.32;;
65459;SDS011;52058;49.822;6.754;2023-09-30T04:04:46;31.08;;;8.48;;
65459;SDS011;52058;49.822;6.754;2023-09-30T04:07:14;19.67;;;7.30;;
65459;SDS011;52058;49.822;6.754;2023-09-30T04:09:42;16.88;;;6.55;;
65459;SDS011;52058;49.822;6.754;2023-09-30T04:12:08;14.13;;;6.47;;
65459;SDS011;52058;49.822;6.754;2023-09-30T04:14:36;14.13;;;6.25;;
65459;SDS011;52058;49.822;6.754;2023-09-30T04:17:02;14.27;;;6.13;;
65459;SDS011;52058;49.822;6.754;2023-09-30T04:19:29;24.17;;;6.15;;
65459;SDS011;52058;49.822;6.754;2023-09-30T04:21:56;13.50;;;6.03;;
65459;SDS011;52058;49.822;6.754;2023-09-30T04:24:22;13.40;;;6.57;;
65459;SDS011;52058;49.822;6.754;2023-09-30T04:26:49;15.50;;;6.88;;
65459;SDS011;52058;49.822;6.754;2023-09-30T04:29:19;11.43;;;6.03;;
65459;SDS011;52058;49.822;6.754;2023-09-30T04:31:47;12.82;;;6.88;;
65459;SDS011;52058;49.822;6.754;2023-09-30T04:34:13;12.45;;;7.38;;
65459;SDS011;52058;49.822;6.754;2023-09-30T04:36:40;14.98;;;6.75;;
65459;SDS011;52058;49.822;6.754;2023-09-30T04:39:07;15.90;;;7.38;;
65459;SDS011;52058;49.822;6.754;2023-09-30T04:41:35;16.95;;;6.85;;
65459;SDS011;52058;49.822;6.754;2023-09-30T04:44:02;18.63;;;7.30;;
65459;SDS011;52058;49.822;6.754;2023-09-30T04:46:29;24.25;;;6.80;;
65459;SDS011;52058;49.822;6.754;2023-09-30T04:48:57;12.55;;;6.82;;
65459;SDS011;52058;49.822;6.754;2023-09-30T04:51:23;15.85;;;7.43;;
65459;SDS011;52058;49.822;6.754;2023-09-30T04:53:51;13.00;;;7.25;;
65459;SDS011;52058;49.822;6.754;2023-09-30T04:56:17;15.48;;;6.47;;
65459;SDS011;52058;49.822;6.754;2023-09-30T04:58:44;17.08;;;6.90;;
65459;SDS011;52058;49.822;6.754;2023-09-30T05:01:12;13.00;;;7.30;;
65459;SDS011;52058;49.822;6.754;2023-09-30T05:03:38;14.57;;;7.60;;
65459;SDS011;52058;49.822;6.754;2023-09-30T05:06:06;17.33;;;7.85;;
65459;SDS011;52058;49.822;6.754;2023-09-30T05:08:33;16.48;;;7.28;;
65459;SDS011;52058;49.822;6.754;2023-09-30T05:10:59;13.38;;;6.72;;
65459;SDS011;52058;49.822;6.754;2023-09-30T05:13:26;11.68;;;6.05;;
65459;SDS011;52058;49.822;6.754;2023-09-30T05:15:52;14.93;;;7.13;;
65459;SDS011;52058;49.822;6.754;2023-09-30T05:18:18;12.32;;;5.97;;
65459;SDS011;52058;49.822;6.754;2023-09-30T05:20:44;12.55;;;6.03;;
65459;SDS011;52058;49.822;6.754;2023-09-30T05:23:12;14.73;;;6.40;;
65459;SDS011;52058;49.822;6.754;2023-09-30T05:25:39;20.48;;;6.85;;
65459;SDS011;52058;49.822;6.754;2023-09-30T05:28:07;14.38;;;6.38;;
65459;SDS011;52058;49.822;6.754;2023-09-30T05:30:34;13.18;;;6.32;;
65459;SDS011;52058;49.822;6.754;2023-09-30T05:33:01;9.70;;;6.15;;
65459;SDS011;52058;49.822;6.754;2023-09-30T05:35:28;11.40;;;7.13;;
65459;SDS011;52058;49.822;6.754;2023-09-30T05:37:57;14.85;;;7.30;;
65459;SDS011;52058;49.822;6.754;2023-09-30T05:40:25;14.88;;;7.95;;
65459;SDS011;52058;49.822;6.754;2023-09-30T05:42:55;24.70;;;7.18;;
65459;SDS011;52058;49.822;6.754;2023-09-30T05:45:23;14.25;;;7.60;;
65459;SDS011;52058;49.822;6.754;2023-09-30T05:47:51;16.02;;;6.82;;
65459;SDS011;52058;49.822;6.754;2023-09-30T05:50:19;13.95;;;7.32;;
65459;SDS011;52058;49.822;6.754;2023-09-30T05:52:49;18.77;;;6.80;;
65459;SDS011;52058;49.822;6.754;2023-09-30T05:55:16;25.75;;;6.90;;
65459;SDS011;52058;49.822;6.754;2023-09-30T05:57:46;14.88;;;7.03;;
65459;SDS011;52058;49.822;6.754;2023-09-30T06:00:13;11.93;;;6.38;;
65459;SDS011;52058;49.822;6.754;2023-09-30T06:02:45;11.40;;;6.57;;
65459;SDS011;52058;49.822;6.754;2023-09-30T06:05:12;16.05;;;6.63;;
65459;SDS011;52058;49.822;6.754;2023-09-30T06:07:40;15.98;;;6.80;;
65459;SDS011;52058;49.822;6.754;2023-09-30T06:10:10;11.68;;;6.10;;
65459;SDS011;52058;49.822;6.754;2023-09-30T06:12:37;13.68;;;6.47;;
65459;SDS011;52058;49.822;6.754;2023-09-30T06:15:05;9.43;;;6.13;;
65459;SDS011;52058;49.822;6.754;2023-09-30T06:17:33;14.13;;;6.05;;
65459;SDS011;52058;49.822;6.754;2023-09-30T06:19:59;11.70;;;5.75;;
65459;SDS011;52058;49.822;6.754;2023-09-30T06:22:34;10.77;;;6.38;;
65459;SDS011;52058;49.822;6.754;2023-09-30T06:25:00;11.43;;;6.40;;
65459;SDS011;52058;49.822;6.754;2023-09-30T06:27:28;13.07;;;5.32;;
65459;SDS011;52058;49.822;6.754;2023-09-30T06:29:55;12.20;;;6.38;;
65459;SDS011;52058;49.822;6.754;2023-09-30T06:32:23;12.98;;;6.50;;
65459;SDS011;52058;49.822;6.754;2023-09-30T06:34:50;10.10;;;6.40;;
65459;SDS011;52058;49.822;6.754;2023-09-30T06:37:17;12.18;;;6.55;;
65459;SDS011;52058;49.822;6.754;2023-09-30T06:39:43;11.57;;;6.18;;
65459;SDS011;52058;49.822;6.754;2023-09-30T06:42:10;10.70;;;5.72;;
65459;SDS011;52058;49.822;6.754;2023-09-30T06:44:36;9.52;;;5.90;;
65459;SDS011;52058;49.822;6.754;2023-09-30T06:47:03;7.82;;;5.50;;
65459;SDS011;52058;49.822;6.754;2023-09-30T06:49:33;10.13;;;6.50;;
65459;SDS011;52058;49.822;6.754;2023-09-30T06:52:00;10.10;;;6.05;;
65459;SDS011;52058;49.822;6.754;2023-09-30T06:54:28;9.68;;;5.72;;
65459;SDS011;52058;49.822;6.754;2023-09-30T06:56:54;7.68;;;5.07;;
65459;SDS011;52058;49.822;6.754;2023-09-30T06:59:21;9.88;;;5.70;;
65459;SDS011;52058;49.822;6.754;2023-09-30T07:01:47;9.13;;;5.38;;
65459;SDS011;52058;49.822;6.754;2023-09-30T07:04:14;10.57;;;5.53;;
65459;SDS011;52058;49.822;6.754;2023-09-30T07:06:42;8.70;;;5.35;;
65459;SDS011;52058;49.822;6.754;2023-09-30T07:09:08;9.77;;;5.68;;
65459;SDS011;52058;49.822;6.754;2023-09-30T07:11:37;8.27;;;5.70;;
65459;SDS011;52058;49.822;6.754;2023-09-30T07:14:03;7.88;;;5.55;;
65459;SDS011;52058;49.822;6.754;2023-09-30T07:16:30;10.00;;;6.22;;
65459;SDS011;52058;49.822;6.754;2023-09-30T07:18:57;8.80;;;5.18;;
65459;SDS011;52058;49.822;6.754;2023-09-30T07:21:23;9.35;;;5.32;;
65459;SDS011;52058;49.822;6.754;2023-09-30T07:23:51;9.63;;;5.50;;
65459;SDS011;52058;49.822;6.754;2023-09-30T07:26:18;9.52;;;4.75;;
65459;SDS011;52058;49.822;6.754;2023-09-30T07:28:50;9.20;;;4.78;;
65459;SDS011;52058;49.822;6.754;2023-09-30T07:31:16;7.65;;;4.82;;
65459;SDS011;52058;49.822;6.754;2023-09-30T07:33:43;7.10;;;4.85;;
65459;SDS011;52058;49.822;6.754;2023-09-30T07:36:09;8.50;;;5.13;;
65459;SDS011;52058;49.822;6.754;2023-09-30T07:38:38;8.23;;;4.68;;
65459;SDS011;52058;49.822;6.754;2023-09-30T07:41:06;6.75;;;5.05;;
65459;SDS011;52058;49.822;6.754;2023-09-30T07:43:35;8.48;;;4.75;;
65459;SDS011;52058;49.822;6.754;2023-09-30T07:46:04;7.10;;;4.82;;
65459;SDS011;52058;49.822;6.754;2023-09-30T07:48:31;7.30;;;4.88;;
65459;SDS011;52058;49.822;6.754;2023-09-30T07:50:58;7.60;;;5.10;;
65459;SDS011;52058;49.822;6.754;2023-09-30T07:53:24;11.55;;;4.85;;
65459;SDS011;52058;49.822;6.754;2023-09-30T07:55:51;10.07;;;5.40;;
65459;SDS011;52058;49.822;6.754;2023-09-30T07:58:20;7.25;;;5.10;;
65459;SDS011;52058;49.822;6.754;2023-09-30T08:00:47;10.18;;;5.00;;
65459;SDS011;52058;49.822;6.754;2023-09-30T08:03:13;10.98;;;5.65;;
65459;SDS011;52058;49.822;6.754;2023-09-30T08:05:41;8.15;;;4.93;;
65459;SDS011;52058;49.822;6.754;2023-09-30T08:08:07;7.10;;;5.38;;
65459;SDS011;52058;49.822;6.754;2023-09-30T08:10:34;8.95;;;5.03;;
65459;SDS011;52058;49.822;6.754;2023-09-30T08:13:01;6.40;;;4.43;;
65459;SDS011;52058;49.822;6.754;2023-09-30T08:15:30;6.20;;;4.20;;
65459;SDS011;52058;49.822;6.754;2023-09-30T08:17:56;6.38;;;4.68;;
65459;SDS011;52058;49.822;6.754;2023-09-30T08:20:23;7.10;;;4.50;;
65459;SDS011;52058;49.822;6.754;2023-09-30T08:22:50;6.78;;;4.70;;
65459;SDS011;52058;49.822;6.754;2023-09-30T08:25:16;8.25;;;4.95;;
65459;SDS011;52058;49.822;6.754;2023-09-30T08:27:43;6.93;;;4.68;;
65459;SDS011;52058;49.822;6.754;2023-09-30T08:30:10;5.85;;;4.70;;
65459;SDS011;52058;49.822;6.754;2023-09-30T08:32:38;6.45;;;4.63;;
65459;SDS011;52058;49.822;6.754;2023-09-30T08:35:05;5.22;;;4.25;;
65459;SDS011;52058;49.822;6.754;2023-09-30T08:37:33;6.00;;;4.32;;
65459;SDS011;52058;49.822;6.754;2023-09-30T08:39:59;6.00;;;4.38;;
65459;SDS011;52058;49.822;6.754;2023-09-30T08:42:27;6.43;;;4.35;;
65459;SDS011;52058;49.822;6.754;2023-09-30T08:44:57;8.73;;;4.70;;
65459;SDS011;52058;49.822;6.754;2023-09-30T08:47:24;6.07;;;4.35;;
65459;SDS011;52058;49.822;6.754;2023-09-30T08:49:53;7.97;;;4.40;;
65459;SDS011;52058;49.822;6.754;2023-09-30T08:52:22;5.35;;;3.90;;
65459;SDS011;52058;49.822;6.754;2023-09-30T08:54:51;7.35;;;4.85;;
65459;SDS011;52058;49.822;6.754;2023-09-30T08:57:18;7.93;;;5.18;;
65459;SDS011;52058;49.822;6.754;2023-09-30T08:59:45;7.40;;;5.30;;
65459;SDS011;52058;49.822;6.754;2023-09-30T09:02:13;6.82;;;4.60;;
65459;SDS011;52058;49.822;6.754;2023-09-30T09:04:40;7.68;;;4.97;;
65459;SDS011;52058;49.822;6.754;2023-09-30T09:07:08;8.68;;;5.22;;
65459;SDS011;52058;49.822;6.754;2023-09-30T09:09:35;7.50;;;4.95;;
65459;SDS011;52058;49.822;6.754;2023-09-30T09:12:02;8.45;;;5.57;;
65459;SDS011;52058;49.822;6.754;2023-09-30T09:14:38;8.50;;;5.22;;
65459;SDS011;52058;49.822;6.754;2023-09-30T09:17:06;9.77;;;5.10;;
65459;SDS011;52058;49.822;6.754;2023-09-30T09:19:33;7.40;;;4.95;;
65459;SDS011;52058;49.822;6.754;2023-09-30T09:22:00;7.65;;;4.70;;
65459;SDS011;52058;49.822;6.754;2023-09-30T09:24:31;6.05;;;4.80;;
65459;SDS011;52058;49.822;6.754;2023-09-30T09:27:05;7.07;;;4.90;;
65459;SDS011;52058;49.822;6.754;2023-09-30T09:29:33;7.78;;;5.00;;
65459;SDS011;52058;49.822;6.754;2023-09-30T09:32:06;7.93;;;5.07;;
65459;SDS011;52058;49.822;6.754;2023-09-30T09:34:34;6.35;;;4.57;;
65459;SDS011;52058;49.822;6.754;2023-09-30T09:37:01;9.23;;;4.95;;
65459;SDS011;52058;49.822;6.754;2023-09-30T09:39:41;7.95;;;4.70;;
65459;SDS011;52058;49.822;6.754;2023-09-30T09:42:22;7.00;;;4.68;;
65459;SDS011;52058;49.822;6.754;2023-09-30T09:44:50;6.60;;;4.78;;
65459;SDS011;52058;49.822;6.754;2023-09-30T09:47:20;9.77;;;5.28;;
65459;SDS011;52058;49.822;6.754;2023-09-30T09:49:47;5.95;;;4.28;;
65459;SDS011;52058;49.822;6.754;2023-09-30T09:52:14;7.07;;;5.18;;
65459;SDS011;52058;49.822;6.754;2023-09-30T09:54:43;7.45;;;4.85;;
65459;SDS011;52058;49.822;6.754;2023-09-30T09:57:11;9.35;;;5.47;;
65459;SDS011;52058;49.822;6.754;2023-09-30T09:59:38;7.20;;;5.30;;
65459;SDS011;52058;49.822;6.754;2023-09-30T10:02:06;7.55;;;4.88;;
65459;SDS011;52058;49.822;6.754;2023-09-30T10:04:36;6.38;;;4.68;;
65459;SDS011;52058;49.822;6.754;2023-09-30T10:07:03;7.95;;;5.18;;
65459;SDS011;52058;49.822;6.754;2023-09-30T10:09:31;7.53;;;5.07;;
65459;SDS011;52058;49.822;6.754;2023-09-30T10:12:02;7.50;;;4.75;;
65459;SDS011;52058;49.822;6.754;2023-09-30T10:14:30;10.30;;;6.18;;
65459;SDS011;52058;49.822;6.754;2023-09-30T10:16:58;6.78;;;4.50;;
65459;SDS011;52058;49.822;6.754;2023-09-30T10:19:26;10.27;;;5.80;;
65459;SDS011;52058;49.822;6.754;2023-09-30T10:24:47;7.63;;;5.25;;
65459;SDS011;52058;49.822;6.754;2023-09-30T10:27:31;9.90;;;5.95;;
65459;SDS011;52058;49.822;6.754;2023-09-30T10:30:05;7.85;;;5.72;;
65459;SDS011;52058;49.822;6.754;2023-09-30T10:35:46;7.57;;;5.85;;
65459;SDS011;52058;49.822;6.754;2023-09-30T10:41:08;7.05;;;5.03;;
65459;SDS011;52058;49.822;6.754;2023-09-30T10:43:39;8.70;;;5.15;;
65459;SDS011;52058;49.822;6.754;2023-09-30T10:52:00;8.00;;;5.85;;
65459;SDS011;52058;49.822;6.754;2023-09-30T10:54:28;9.07;;;6.13;;
65459;SDS011;52058;49.822;6.754;2023-09-30T10:56:56;10.00;;;5.63;;
65459;SDS011;52058;49.822;6.754;2023-09-30T10:59:26;7.00;;;5.63;;
65459;SDS011;52058;49.822;6.754;2023-09-30T11:01:55;8.88;;;5.43;;
65459;SDS011;52058;49.822;6.754;2023-09-30T11:04:22;10.13;;;6.00;;
65459;SDS011;52058;49.822;6.754;2023-09-30T11:06:48;9.15;;;4.90;;
65459;SDS011;52058;49.822;6.754;2023-09-30T11:09:16;8.32;;;5.43;;
65459;SDS011;52058;49.822;6.754;2023-09-30T11:11:44;7.78;;;4.90;;
65459;SDS011;52058;49.822;6.754;2023-09-30T11:14:17;10.13;;;4.55;;
65459;SDS011;52058;49.822;6.754;2023-09-30T11:16:46;7.05;;;4.13;;
65459;SDS011;52058;49.822;6.754;2023-09-30T11:19:13;6.90;;;4.10;;
65459;SDS011;52058;49.822;6.754;2023-09-30T11:21:41;6.22;;;3.40;;
65459;SDS011;52058;49.822;6.754;2023-09-30T11:24:08;6.18;;;2.97;;
65459;SDS011;52058;49.822;6.754;2023-09-30T11:26:35;5.70;;;3.58;;
65459;SDS011;52058;49.822;6.754;2023-09-30T11:29:05;8.32;;;3.25;;
65459;SDS011;52058;49.822;6.754;2023-09-30T11:31:32;6.15;;;3.20;;
65459;SDS011;52058;49.822;6.754;2023-09-30T11:34:00;6.55;;;3.00;;
65459;SDS011;52058;49.822;6.754;2023-09-30T11:36:29;5.82;;;3.88;;
65459;SDS011;52058;49.822;6.754;2023-09-30T11:38:56;6.45;;;3.30;;
65459;SDS011;52058;49.822;6.754;2023-09-30T11:41:31;4.53;;;2.97;;
65459;SDS011;52058;49.822;6.754;2023-09-30T11:43:59;7.22;;;3.38;;
65459;SDS011;52058;49.822;6.754;2023-09-30T11:46:29;7.13;;;3.22;;
65459;SDS011;52058;49.822;6.754;2023-09-30T11:48:59;6.72;;;3.10;;
65459;SDS011;52058;49.822;6.754;2023-09-30T11:51:27;6.70;;;3.17;;
65459;SDS011;52058;49.822;6.754;2023-09-30T11:53:56;6.65;;;3.17;;
65459;SDS011;52058;49.822;6.754;2023-09-30T11:56:23;6.68;;;3.35;;
65459;SDS011;52058;49.822;6.754;2023-09-30T11:58:54;5.88;;;3.40;;
65459;SDS011;52058;49.822;6.754;2023-09-30T12:01:21;7.18;;;3.30;;
65459;SDS011;52058;49.822;6.754;2023-09-30T12:03:50;6.68;;;2.95;;
65459;SDS011;52058;49.822;6.754;2023-09-30T12:06:19;7.75;;;2.95;;
65459;SDS011;52058;49.822;6.754;2023-09-30T12:08:46;7.43;;;3.58;;
65459;SDS011;52058;49.822;6.754;2023-09-30T12:11:12;5.80;;;3.05;;
65459;SDS011;52058;49.822;6.754;2023-09-30T12:13:41;6.07;;;2.85;;
65459;SDS011;52058;49.822;6.754;2023-09-30T12:16:09;7.00;;;3.20;;
65459;SDS011;52058;49.822;6.754;2023-09-30T12:18:36;6.88;;;2.88;;
65459;SDS011;52058;49.822;6.754;2023-09-30T12:21:03;5.55;;;2.88;;
65459;SDS011;52058;49.822;6.754;2023-09-30T12:23:33;4.82;;;3.10;;
65459;SDS011;52058;49.822;6.754;2023-09-30T12:26:00;7.45;;;3.20;;
65459;SDS011;52058;49.822;6.754;2023-09-30T12:28:30;5.55;;;3.03;;
65459;SDS011;52058;49.822;6.754;2023-09-30T12:30:57;5.75;;;2.85;;
65459;SDS011;52058;49.822;6.754;2023-09-30T12:33:23;5.68;;;2.67;;
65459;SDS011;52058;49.822;6.754;2023-09-30T12:35:52;5.60;;;3.03;;
65459;SDS011;52058;49.822;6.754;2023-09-30T12:38:18;6.10;;;2.90;;
65459;SDS011;52058;49.822;6.754;2023-09-30T12:40:46;5.70;;;2.85;;
65459;SDS011;52058;49.822;6.754;2023-09-30T12:43:13;5.55;;;2.70;;
65459;SDS011;52058;49.822;6.754;2023-09-30T12:45:40;5.40;;;2.90;;
65459;SDS011;52058;49.822;6.754;2023-09-30T12:48:07;5.25;;;2.70;;
65459;SDS011;52058;49.822;6.754;2023-09-30T12:50:33;8.00;;;3.22;;
65459;SDS011;52058;49.822;6.754;2023-09-30T12:53:00;6.05;;;3.10;;
65459;SDS011;52058;49.822;6.754;2023-09-30T12:55:27;6.93;;;3.00;;
65459;SDS011;52058;49.822;6.754;2023-09-30T12:57:55;7.30;;;3.15;;
65459;SDS011;52058;49.822;6.754;2023-09-30T13:00:22;4.80;;;2.70;;
65459;SDS011;52058;49.822;6.754;2023-09-30T13:02:50;6.30;;;3.20;;
65459;SDS011;52058;49.822;6.754;2023-09-30T13:05:17;7.93;;;2.85;;
65459;SDS011;52058;49.822;6.754;2023-09-30T13:07:43;4.38;;;2.60;;
65459;SDS011;52058;49.822;6.754;2023-09-30T13:10:11;4.70;;;2.67;;
65459;SDS011;52058;49.822;6.754;2023-09-30T13:12:38;4.50;;;2.97;;
65459;SDS011;52058;49.822;6.754;2023-09-30T13:15:06;4.35;;;2.42;;
65459;SDS011;52058;49.822;6.754;2023-09-30T13:17:34;4.78;;;2.83;;
65459;SDS011;52058;49.822;6.754;2023-09-30T13:20:01;6.15;;;2.90;;
65459;SDS011;52058;49.822;6.754;2023-09-30T13:22:30;4.75;;;2.50;;
65459;SDS011;52058;49.822;6.754;2023-09-30T13:24:56;5.80;;;2.70;;
65459;SDS011;52058;49.822;6.754;2023-09-30T13:27:23;4.80;;;2.30;;
65459;SDS011;52058;49.822;6.754;2023-09-30T13:29:49;4.30;;;3.00;;
65459;SDS011;52058;49.822;6.754;2023-09-30T13:32:17;5.07;;;2.60;;
65459;SDS011;52058;49.822;6.754;2023-09-30T13:34:44;4.20;;;2.13;;
65459;SDS011;52058;49.822;6.754;2023-09-30T13:37:11;4.05;;;2.47;;
65459;SDS011;52058;49.822;6.754;2023-09-30T13:39:38;5.47;;;2.75;;
65459;SDS011;52058;49.822;6.754;2023-09-30T13:42:04;4.80;;;2.80;;
65459;SDS011;52058;49.822;6.754;2023-09-30T13:44:32;4.88;;;2.50;;
65459;SDS011;52058;49.822;6.754;2023-09-30T13:46:58;5.70;;;2.95;;
65459;SDS011;52058;49.822;6.754;2023-09-30T13:49:26;3.80;;;2.50;;
65459;SDS011;52058;49.822;6.754;2023-09-30T13:51:53;3.65;;;2.40;;
65459;SDS011;52058;49.822;6.754;2023-09-30T13:54:19;3.95;;;2.45;;
65459;SDS011;52058;49.822;6.754;2023-09-30T13:56:46;5.47;;;2.97;;
65459;SDS011;52058;49.822;6.754;2023-09-30T13:59:13;4.03;;;2.40;;
65459;SDS011;52058;49.822;6.754;2023-09-30T14:01:39;4.32;;;2.42;;
65459;SDS011;52058;49.822;6.754;2023-09-30T14:04:06;4.38;;;2.58;;
65459;SDS011;52058;49.822;6.754;2023-09-30T14:06:34;4.45;;;2.55;;
65459;SDS011;52058;49.822;6.754;2023-09-30T14:09:01;4.28;;;2.58;;
65459;SDS011;52058;49.822;6.754;2023-09-30T14:11:28;4.15;;;2.30;;
65459;SDS011;52058;49.822;6.754;2023-09-30T14:13:55;4.53;;;2.33;;
65459;SDS011;52058;49.822;6.754;2023-09-30T14:16:22;4.53;;;2.28;;
65459;SDS011;52058;49.822;6.754;2023-09-30T14:18:48;4.95;;;2.40;;
65459;SDS011;52058;49.822;6.754;2023-09-30T14:21:16;4.40;;;2.50;;
65459;SDS011;52058;49.822;6.754;2023-09-30T14:23:44;6.05;;;2.50;;
65459;SDS011;52058;49.822;6.754;2023-09-30T14:26:11;3.40;;;2.30;;
65459;SDS011;52058;49.822;6.754;2023-09-30T14:28:37;4.68;;;2.50;;
65459;SDS011;52058;49.822;6.754;2023-09-30T14:31:04;2.92;;;2.00;;
65459;SDS011;52058;49.822;6.754;2023-09-30T14:33:30;3.63;;;2.13;;
65459;SDS011;52058;49.822;6.754;2023-09-30T14:35:57;3.80;;;2.22;;
65459;SDS011;52058;49.822;6.754;2023-09-30T14:38:24;4.25;;;2.40;;
65459;SDS011;52058;49.822;6.754;2023-09-30T14:40:52;4.13;;;2.40;;
65459;SDS011;52058;49.822;6.754;2023-09-30T14:43:18;3.58;;;2.13;;
65459;SDS011;52058;49.822;6.754;2023-09-30T14:45:45;4.65;;;2.35;;
65459;SDS011;52058;49.822;6.754;2023-09-30T14:48:11;5.03;;;2.58;;
65459;SDS011;52058;49.822;6.754;2023-09-30T14:50:47;5.20;;;2.75;;
65459;SDS011;52058;49.822;6.754;2023-09-30T14:53:14;2.95;;;2.15;;
65459;SDS011;52058;49.822;6.754;2023-09-30T14:55:40;5.47;;;2.70;;
65459;SDS011;52058;49.822;6.754;2023-09-30T14:58:08;8.05;;;4.20;;
65459;SDS011;52058;49.822;6.754;2023-09-30T15:00:35;4.30;;;2.67;;